sensor_id;sensor_type;location;lat;lon;timestamp;P1;durP1;ratioP1;P2;durP2;ratioP2
6101;SDS011;3081;50.584;7.032;2023-04-25T00:00:51;13.17;;;7.40;;
6101;SDS011;3081;50.584;7.032;2023-04-25T00:03:18;11.20;;;6.87;;
6101;SDS011;3081;50.584;7.032;2023-04-25T00:05:46;17.60;;;7.17;;
6101;SDS011;3081;50.584;7.032;2023-04-25T00:08:15;11.70;;;6.43;;
6101;SDS011;3081;50.584;7.032;2023-04-25T00:10:42;11.03;;;5.93;;
6101;SDS011;3081;50.584;7.032;2023-04-25T00:13:09;9.87;;;6.27;;
6101;SDS011;3081;50.584;7.032;2023-04-25T00:15:36;12.33;;;6.60;;
6101;SDS011;3081;50.584;7.032;2023-04-25T00:18:03;10.80;;;6.57;;
6101;SDS011;3081;50.584;7.032;2023-04-25T00:20:31;14.90;;;6.60;;
6101;SDS011;3081;50.584;7.032;2023-04-25T00:22:58;12.20;;;6.00;;
6101;SDS011;3081;50.584;7.032;2023-04-25T00:25:27;11.63;;;6.43;;
6101;SDS011;3081;50.584;7.032;2023-04-25T00:27:54;22.20;;;6.23;;
6101;SDS011;3081;50.584;7.032;2023-04-25T00:30:21;13.43;;;6.07;;
6101;SDS011;3081;50.584;7.032;2023-04-25T00:32:47;10.00;;;5.90;;
6101;SDS011;3081;50.584;7.032;2023-04-25T00:35:14;10.20;;;5.87;;
6101;SDS011;3081;50.584;7.032;2023-04-25T00:37:41;7.23;;;4.97;;
6101;SDS011;3081;50.584;7.032;2023-04-25T00:40:09;13.33;;;4.93;;
6101;SDS011;3081;50.584;7.032;2023-04-25T00:42:37;10.53;;;5.20;;
6101;SDS011;3081;50.584;7.032;2023-04-25T00:45:05;11.90;;;5.57;;
6101;SDS011;3081;50.584;7.032;2023-04-25T00:47:35;7.90;;;4.57;;
6101;SDS011;3081;50.584;7.032;2023-04-25T00:50:02;14.73;;;6.00;;
6101;SDS011;3081;50.584;7.032;2023-04-25T00:52:29;10.60;;;5.70;;
6101;SDS011;3081;50.584;7.032;2023-04-25T00:54:56;16.57;;;5.80;;
6101;SDS011;3081;50.584;7.032;2023-04-25T00:57:23;11.33;;;5.00;;
6101;SDS011;3081;50.584;7.032;2023-04-25T00:59:52;9.90;;;5.40;;
6101;SDS011;3081;50.584;7.032;2023-04-25T01:02:20;9.93;;;5.47;;
6101;SDS011;3081;50.584;7.032;2023-04-25T01:04:47;7.77;;;3.77;;
6101;SDS011;3081;50.584;7.032;2023-04-25T01:07:14;15.17;;;5.37;;
6101;SDS011;3081;50.584;7.032;2023-04-25T01:09:41;7.80;;;4.20;;
6101;SDS011;3081;50.584;7.032;2023-04-25T01:12:08;10.07;;;4.40;;
6101;SDS011;3081;50.584;7.032;2023-04-25T01:14:35;13.73;;;4.90;;
6101;SDS011;3081;50.584;7.032;2023-04-25T01:17:03;9.60;;;4.63;;
6101;SDS011;3081;50.584;7.032;2023-04-25T01:19:32;13.30;;;4.37;;
6101;SDS011;3081;50.584;7.032;2023-04-25T01:22:01;11.37;;;4.67;;
6101;SDS011;3081;50.584;7.032;2023-04-25T01:24:28;8.03;;;3.40;;
6101;SDS011;3081;50.584;7.032;2023-04-25T01:26:57;7.77;;;3.60;;
6101;SDS011;3081;50.584;7.032;2023-04-25T01:29:26;5.50;;;2.70;;
6101;SDS011;3081;50.584;7.032;2023-04-25T01:31:54;8.70;;;3.00;;
6101;SDS011;3081;50.584;7.032;2023-04-25T01:34:21;15.57;;;5.30;;
6101;SDS011;3081;50.584;7.032;2023-04-25T01:36:49;9.93;;;5.10;;
6101;SDS011;3081;50.584;7.032;2023-04-25T01:39:18;14.07;;;5.87;;
6101;SDS011;3081;50.584;7.032;2023-04-25T01:41:45;12.30;;;5.43;;
6101;SDS011;3081;50.584;7.032;2023-04-25T01:44:12;10.53;;;5.20;;
6101;SDS011;3081;50.584;7.032;2023-04-25T01:46:39;13.00;;;4.77;;
6101;SDS011;3081;50.584;7.032;2023-04-25T01:49:07;9.50;;;5.37;;
6101;SDS011;3081;50.584;7.032;2023-04-25T01:51:34;8.10;;;3.80;;
6101;SDS011;3081;50.584;7.032;2023-04-25T01:54:01;14.53;;;5.50;;
6101;SDS011;3081;50.584;7.032;2023-04-25T01:56:31;10.20;;;5.00;;
6101;SDS011;3081;50.584;7.032;2023-04-25T01:58:58;12.00;;;4.40;;
6101;SDS011;3081;50.584;7.032;2023-04-25T02:01:25;11.13;;;5.00;;
6101;SDS011;3081;50.584;7.032;2023-04-25T02:03:52;19.13;;;5.20;;
6101;SDS011;3081;50.584;7.032;2023-04-25T02:06:19;9.03;;;4.93;;
6101;SDS011;3081;50.584;7.032;2023-04-25T02:08:45;12.27;;;5.60;;
6101;SDS011;3081;50.584;7.032;2023-04-25T02:11:12;12.47;;;4.10;;
6101;SDS011;3081;50.584;7.032;2023-04-25T02:13:41;12.80;;;5.23;;
6101;SDS011;3081;50.584;7.032;2023-04-25T02:16:08;9.83;;;5.00;;
6101;SDS011;3081;50.584;7.032;2023-04-25T02:18:35;14.40;;;5.40;;
6101;SDS011;3081;50.584;7.032;2023-04-25T02:21:02;10.50;;;4.60;;
6101;SDS011;3081;50.584;7.032;2023-04-25T02:23:29;4.07;;;2.17;;
6101;SDS011;3081;50.584;7.032;2023-04-25T02:25:56;8.27;;;3.43;;
6101;SDS011;3081;50.584;7.032;2023-04-25T02:28:23;10.13;;;4.50;;
6101;SDS011;3081;50.584;7.032;2023-04-25T02:30:53;13.07;;;5.40;;
6101;SDS011;3081;50.584;7.032;2023-04-25T02:33:20;9.47;;;4.57;;
6101;SDS011;3081;50.584;7.032;2023-04-25T02:35:47;10.90;;;4.50;;
6101;SDS011;3081;50.584;7.032;2023-04-25T02:38:14;8.93;;;4.63;;
6101;SDS011;3081;50.584;7.032;2023-04-25T02:40:40;11.40;;;5.30;;
6101;SDS011;3081;50.584;7.032;2023-04-25T02:43:07;17.93;;;8.80;;
6101;SDS011;3081;50.584;7.032;2023-04-25T02:45:34;9.50;;;3.30;;
6101;SDS011;3081;50.584;7.032;2023-04-25T02:48:04;10.93;;;4.00;;
6101;SDS011;3081;50.584;7.032;2023-04-25T02:50:31;6.70;;;3.10;;
6101;SDS011;3081;50.584;7.032;2023-04-25T02:52:58;13.57;;;4.10;;
6101;SDS011;3081;50.584;7.032;2023-04-25T02:55:25;12.40;;;4.37;;
6101;SDS011;3081;50.584;7.032;2023-04-25T02:57:52;12.47;;;5.37;;
6101;SDS011;3081;50.584;7.032;2023-04-25T03:00:20;9.90;;;4.83;;
6101;SDS011;3081;50.584;7.032;2023-04-25T03:02:47;10.57;;;4.50;;
6101;SDS011;3081;50.584;7.032;2023-04-25T03:05:16;10.30;;;5.27;;
6101;SDS011;3081;50.584;7.032;2023-04-25T03:07:43;10.17;;;5.13;;
6101;SDS011;3081;50.584;7.032;2023-04-25T03:10:10;10.37;;;5.10;;
6101;SDS011;3081;50.584;7.032;2023-04-25T03:12:38;12.20;;;4.77;;
6101;SDS011;3081;50.584;7.032;2023-04-25T03:15:05;11.97;;;5.30;;
6101;SDS011;3081;50.584;7.032;2023-04-25T03:17:32;17.50;;;5.60;;
6101;SDS011;3081;50.584;7.032;2023-04-25T03:19:59;13.07;;;5.30;;
6101;SDS011;3081;50.584;7.032;2023-04-25T03:22:28;13.73;;;5.13;;
6101;SDS011;3081;50.584;7.032;2023-04-25T03:24:55;9.13;;;5.27;;
6101;SDS011;3081;50.584;7.032;2023-04-25T03:27:21;13.70;;;5.63;;
6101;SDS011;3081;50.584;7.032;2023-04-25T03:29:48;14.10;;;5.60;;
6101;SDS011;3081;50.584;7.032;2023-04-25T03:32:15;12.00;;;5.10;;
6101;SDS011;3081;50.584;7.032;2023-04-25T03:34:42;13.53;;;4.80;;
6101;SDS011;3081;50.584;7.032;2023-04-25T03:37:09;9.27;;;5.00;;
6101;SDS011;3081;50.584;7.032;2023-04-25T03:39:37;14.73;;;5.40;;
6101;SDS011;3081;50.584;7.032;2023-04-25T03:42:04;13.30;;;5.50;;
6101;SDS011;3081;50.584;7.032;2023-04-25T03:44:31;5.70;;;2.77;;
6101;SDS011;3081;50.584;7.032;2023-04-25T03:46:58;10.50;;;3.90;;
6101;SDS011;3081;50.584;7.032;2023-04-25T03:49:25;9.83;;;4.40;;
6101;SDS011;3081;50.584;7.032;2023-04-25T03:51:52;9.70;;;4.70;;
6101;SDS011;3081;50.584;7.032;2023-04-25T03:54:19;12.93;;;3.90;;
6101;SDS011;3081;50.584;7.032;2023-04-25T03:56:47;8.87;;;3.97;;
6101;SDS011;3081;50.584;7.032;2023-04-25T03:59:14;7.30;;;3.53;;
6101;SDS011;3081;50.584;7.032;2023-04-25T04:01:41;10.63;;;4.37;;
6101;SDS011;3081;50.584;7.032;2023-04-25T04:04:08;9.47;;;3.63;;
6101;SDS011;3081;50.584;7.032;2023-04-25T04:06:35;17.63;;;4.40;;
6101;SDS011;3081;50.584;7.032;2023-04-25T04:09:02;10.40;;;4.60;;
6101;SDS011;3081;50.584;7.032;2023-04-25T04:11:29;14.20;;;5.47;;
6101;SDS011;3081;50.584;7.032;2023-04-25T04:13:58;13.30;;;3.50;;
6101;SDS011;3081;50.584;7.032;2023-04-25T04:16:25;15.03;;;4.90;;
6101;SDS011;3081;50.584;7.032;2023-04-25T04:18:52;16.60;;;5.20;;
6101;SDS011;3081;50.584;7.032;2023-04-25T04:21:19;9.10;;;3.50;;
6101;SDS011;3081;50.584;7.032;2023-04-25T04:23:46;8.60;;;3.57;;
6101;SDS011;3081;50.584;7.032;2023-04-25T04:26:13;13.43;;;3.27;;
6101;SDS011;3081;50.584;7.032;2023-04-25T04:28:41;7.10;;;2.70;;
6101;SDS011;3081;50.584;7.032;2023-04-25T04:31:10;7.30;;;3.27;;
6101;SDS011;3081;50.584;7.032;2023-04-25T04:33:37;10.47;;;3.60;;
6101;SDS011;3081;50.584;7.032;2023-04-25T04:36:05;12.30;;;4.47;;
6101;SDS011;3081;50.584;7.032;2023-04-25T04:38:32;16.60;;;4.80;;
6101;SDS011;3081;50.584;7.032;2023-04-25T04:40:59;12.50;;;4.57;;
6101;SDS011;3081;50.584;7.032;2023-04-25T04:43:27;21.90;;;4.90;;
6101;SDS011;3081;50.584;7.032;2023-04-25T04:45:54;13.40;;;5.60;;
6101;SDS011;3081;50.584;7.032;2023-04-25T04:48:23;11.70;;;5.10;;
6101;SDS011;3081;50.584;7.032;2023-04-25T04:50:50;5.53;;;2.47;;
6101;SDS011;3081;50.584;7.032;2023-04-25T04:53:17;6.87;;;2.97;;
6101;SDS011;3081;50.584;7.032;2023-04-25T04:55:44;10.13;;;4.00;;
6101;SDS011;3081;50.584;7.032;2023-04-25T04:58:11;4.50;;;2.03;;
6101;SDS011;3081;50.584;7.032;2023-04-25T05:00:38;8.07;;;3.93;;
6101;SDS011;3081;50.584;7.032;2023-04-25T05:03:05;10.37;;;3.63;;
6101;SDS011;3081;50.584;7.032;2023-04-25T05:05:33;16.33;;;5.20;;
6101;SDS011;3081;50.584;7.032;2023-04-25T05:08:00;13.97;;;4.23;;
6101;SDS011;3081;50.584;7.032;2023-04-25T05:10:27;15.23;;;4.03;;
6101;SDS011;3081;50.584;7.032;2023-04-25T05:12:54;12.67;;;4.30;;
6101;SDS011;3081;50.584;7.032;2023-04-25T05:15:21;9.67;;;3.13;;
6101;SDS011;3081;50.584;7.032;2023-04-25T05:17:48;10.53;;;4.63;;
6101;SDS011;3081;50.584;7.032;2023-04-25T05:20:15;13.00;;;5.00;;
6101;SDS011;3081;50.584;7.032;2023-04-25T05:22:44;9.53;;;2.90;;
6101;SDS011;3081;50.584;7.032;2023-04-25T05:25:11;11.93;;;5.13;;
6101;SDS011;3081;50.584;7.032;2023-04-25T05:27:38;10.00;;;4.00;;
6101;SDS011;3081;50.584;7.032;2023-04-25T05:30:06;5.50;;;3.10;;
6101;SDS011;3081;50.584;7.032;2023-04-25T05:32:33;7.57;;;3.83;;
6101;SDS011;3081;50.584;7.032;2023-04-25T05:35:00;12.25;;;4.40;;
6101;SDS011;3081;50.584;7.032;2023-04-25T05:37:28;13.03;;;5.27;;
6101;SDS011;3081;50.584;7.032;2023-04-25T05:39:57;9.23;;;4.20;;
6101;SDS011;3081;50.584;7.032;2023-04-25T05:42:24;10.17;;;4.47;;
6101;SDS011;3081;50.584;7.032;2023-04-25T05:44:51;9.20;;;3.77;;
6101;SDS011;3081;50.584;7.032;2023-04-25T05:47:18;11.33;;;3.50;;
6101;SDS011;3081;50.584;7.032;2023-04-25T05:49:45;7.20;;;2.60;;
6101;SDS011;3081;50.584;7.032;2023-04-25T05:52:12;11.40;;;3.67;;
6101;SDS011;3081;50.584;7.032;2023-04-25T05:54:40;7.87;;;3.90;;
6101;SDS011;3081;50.584;7.032;2023-04-25T05:57:08;10.50;;;3.17;;
6101;SDS011;3081;50.584;7.032;2023-04-25T05:59:35;8.90;;;3.90;;
6101;SDS011;3081;50.584;7.032;2023-04-25T06:02:02;15.00;;;6.40;;
6101;SDS011;3081;50.584;7.032;2023-04-25T06:04:29;9.37;;;3.17;;
6101;SDS011;3081;50.584;7.032;2023-04-25T06:06:56;13.33;;;4.00;;
6101;SDS011;3081;50.584;7.032;2023-04-25T06:09:22;11.30;;;3.10;;
6101;SDS011;3081;50.584;7.032;2023-04-25T06:11:49;11.27;;;2.73;;
6101;SDS011;3081;50.584;7.032;2023-04-25T06:14:18;9.53;;;2.83;;
6101;SDS011;3081;50.584;7.032;2023-04-25T06:16:45;13.60;;;4.60;;
6101;SDS011;3081;50.584;7.032;2023-04-25T06:19:12;7.37;;;1.90;;
6101;SDS011;3081;50.584;7.032;2023-04-25T06:21:38;12.43;;;4.20;;
6101;SDS011;3081;50.584;7.032;2023-04-25T06:24:05;14.80;;;4.40;;
6101;SDS011;3081;50.584;7.032;2023-04-25T06:26:32;8.70;;;3.30;;
6101;SDS011;3081;50.584;7.032;2023-04-25T06:28:59;15.77;;;4.60;;
6101;SDS011;3081;50.584;7.032;2023-04-25T06:31:27;19.30;;;4.33;;
6101;SDS011;3081;50.584;7.032;2023-04-25T06:33:57;17.03;;;4.23;;
6101;SDS011;3081;50.584;7.032;2023-04-25T06:36:24;15.73;;;5.07;;
6101;SDS011;3081;50.584;7.032;2023-04-25T06:38:52;15.47;;;3.03;;
6101;SDS011;3081;50.584;7.032;2023-04-25T06:41:19;12.80;;;4.43;;
6101;SDS011;3081;50.584;7.032;2023-04-25T06:43:46;10.53;;;3.20;;
6101;SDS011;3081;50.584;7.032;2023-04-25T06:46:14;11.67;;;3.70;;
6101;SDS011;3081;50.584;7.032;2023-04-25T06:48:42;14.03;;;4.20;;
6101;SDS011;3081;50.584;7.032;2023-04-25T06:51:09;16.03;;;5.23;;
6101;SDS011;3081;50.584;7.032;2023-04-25T06:53:35;12.40;;;3.93;;
6101;SDS011;3081;50.584;7.032;2023-04-25T06:56:03;9.47;;;3.60;;
6101;SDS011;3081;50.584;7.032;2023-04-25T06:58:30;15.80;;;4.37;;
6101;SDS011;3081;50.584;7.032;2023-04-25T07:00:57;8.33;;;2.20;;
6101;SDS011;3081;50.584;7.032;2023-04-25T07:03:24;12.47;;;3.87;;
6101;SDS011;3081;50.584;7.032;2023-04-25T07:05:52;15.97;;;5.07;;
6101;SDS011;3081;50.584;7.032;2023-04-25T07:08:19;21.93;;;3.97;;
6101;SDS011;3081;50.584;7.032;2023-04-25T07:10:46;13.97;;;5.03;;
6101;SDS011;3081;50.584;7.032;2023-04-25T07:13:13;23.27;;;4.10;;
6101;SDS011;3081;50.584;7.032;2023-04-25T07:15:40;8.23;;;2.53;;
6101;SDS011;3081;50.584;7.032;2023-04-25T07:18:07;17.93;;;4.10;;
6101;SDS011;3081;50.584;7.032;2023-04-25T07:20:34;12.57;;;3.27;;
6101;SDS011;3081;50.584;7.032;2023-04-25T07:23:02;11.70;;;3.67;;
6101;SDS011;3081;50.584;7.032;2023-04-25T07:25:29;20.77;;;5.07;;
6101;SDS011;3081;50.584;7.032;2023-04-25T07:27:56;16.60;;;4.60;;
6101;SDS011;3081;50.584;7.032;2023-04-25T07:30:23;6.33;;;1.87;;
6101;SDS011;3081;50.584;7.032;2023-04-25T07:32:51;15.20;;;4.13;;
6101;SDS011;3081;50.584;7.032;2023-04-25T07:35:18;8.80;;;2.67;;
6101;SDS011;3081;50.584;7.032;2023-04-25T07:37:45;8.97;;;3.00;;
6101;SDS011;3081;50.584;7.032;2023-04-25T07:40:14;25.17;;;11.37;;
6101;SDS011;3081;50.584;7.032;2023-04-25T07:42:41;15.17;;;3.13;;
6101;SDS011;3081;50.584;7.032;2023-04-25T07:45:09;8.53;;;2.13;;
6101;SDS011;3081;50.584;7.032;2023-04-25T07:47:36;10.70;;;3.00;;
6101;SDS011;3081;50.584;7.032;2023-04-25T07:50:03;14.33;;;3.37;;
6101;SDS011;3081;50.584;7.032;2023-04-25T07:52:31;11.30;;;3.27;;
6101;SDS011;3081;50.584;7.032;2023-04-25T07:54:57;11.47;;;3.53;;
6101;SDS011;3081;50.584;7.032;2023-04-25T07:57:26;14.80;;;4.70;;
6101;SDS011;3081;50.584;7.032;2023-04-25T07:59:53;22.20;;;4.00;;
6101;SDS011;3081;50.584;7.032;2023-04-25T08:02:20;16.20;;;3.73;;
6101;SDS011;3081;50.584;7.032;2023-04-25T08:04:47;10.90;;;3.00;;
6101;SDS011;3081;50.584;7.032;2023-04-25T08:07:14;9.53;;;2.83;;
6101;SDS011;3081;50.584;7.032;2023-04-25T08:09:41;10.90;;;3.33;;
6101;SDS011;3081;50.584;7.032;2023-04-25T08:12:08;28.80;;;2.90;;
6101;SDS011;3081;50.584;7.032;2023-04-25T08:14:36;16.40;;;3.80;;
6101;SDS011;3081;50.584;7.032;2023-04-25T08:17:04;14.60;;;3.50;;
6101;SDS011;3081;50.584;7.032;2023-04-25T08:19:31;11.60;;;3.37;;
6101;SDS011;3081;50.584;7.032;2023-04-25T08:21:58;15.80;;;3.73;;
6101;SDS011;3081;50.584;7.032;2023-04-25T08:24:25;13.30;;;3.30;;
6101;SDS011;3081;50.584;7.032;2023-04-25T08:26:52;17.00;;;4.90;;
6101;SDS011;3081;50.584;7.032;2023-04-25T08:29:19;15.17;;;3.63;;
6101;SDS011;3081;50.584;7.032;2023-04-25T08:31:49;13.40;;;3.10;;
6101;SDS011;3081;50.584;7.032;2023-04-25T08:34:17;8.03;;;1.70;;
6101;SDS011;3081;50.584;7.032;2023-04-25T08:36:45;13.33;;;2.53;;
6101;SDS011;3081;50.584;7.032;2023-04-25T08:39:11;15.63;;;3.20;;
6101;SDS011;3081;50.584;7.032;2023-04-25T08:41:39;15.73;;;3.10;;
6101;SDS011;3081;50.584;7.032;2023-04-25T08:44:07;8.50;;;1.70;;
6101;SDS011;3081;50.584;7.032;2023-04-25T08:46:37;11.23;;;2.83;;
6101;SDS011;3081;50.584;7.032;2023-04-25T08:49:07;9.60;;;1.93;;
6101;SDS011;3081;50.584;7.032;2023-04-25T08:51:35;12.10;;;2.77;;
6101;SDS011;3081;50.584;7.032;2023-04-25T08:54:13;10.77;;;2.40;;
6101;SDS011;3081;50.584;7.032;2023-04-25T08:56:41;10.13;;;2.43;;
6101;SDS011;3081;50.584;7.032;2023-04-25T08:59:10;7.07;;;1.63;;
6101;SDS011;3081;50.584;7.032;2023-04-25T09:01:37;11.43;;;2.30;;
6101;SDS011;3081;50.584;7.032;2023-04-25T09:04:04;12.33;;;2.80;;
6101;SDS011;3081;50.584;7.032;2023-04-25T09:06:33;9.77;;;1.97;;
6101;SDS011;3081;50.584;7.032;2023-04-25T09:09:01;8.00;;;2.03;;
6101;SDS011;3081;50.584;7.032;2023-04-25T09:11:30;10.13;;;1.57;;
6101;SDS011;3081;50.584;7.032;2023-04-25T09:14:11;8.17;;;2.03;;
6101;SDS011;3081;50.584;7.032;2023-04-25T09:19:35;11.70;;;3.07;;
6101;SDS011;3081;50.584;7.032;2023-04-25T09:22:04;8.40;;;1.77;;
6101;SDS011;3081;50.584;7.032;2023-04-25T09:24:33;14.13;;;2.53;;
6101;SDS011;3081;50.584;7.032;2023-04-25T09:27:02;11.20;;;2.27;;
6101;SDS011;3081;50.584;7.032;2023-04-25T09:29:30;10.37;;;2.13;;
6101;SDS011;3081;50.584;7.032;2023-04-25T09:32:11;9.13;;;1.60;;
6101;SDS011;3081;50.584;7.032;2023-04-25T09:34:47;8.10;;;2.30;;
6101;SDS011;3081;50.584;7.032;2023-04-25T09:37:19;9.03;;;2.17;;
6101;SDS011;3081;50.584;7.032;2023-04-25T09:39:46;9.30;;;2.30;;
6101;SDS011;3081;50.584;7.032;2023-04-25T09:42:14;9.90;;;2.20;;
6101;SDS011;3081;50.584;7.032;2023-04-25T09:44:42;6.63;;;1.13;;
6101;SDS011;3081;50.584;7.032;2023-04-25T09:47:10;11.43;;;2.07;;
6101;SDS011;3081;50.584;7.032;2023-04-25T09:49:39;14.93;;;2.67;;
6101;SDS011;3081;50.584;7.032;2023-04-25T09:52:09;11.07;;;2.23;;
6101;SDS011;3081;50.584;7.032;2023-04-25T09:54:39;7.70;;;1.60;;
6101;SDS011;3081;50.584;7.032;2023-04-25T09:57:09;11.30;;;2.20;;
6101;SDS011;3081;50.584;7.032;2023-04-25T09:59:38;17.73;;;2.83;;
6101;SDS011;3081;50.584;7.032;2023-04-25T10:02:09;9.47;;;1.70;;
6101;SDS011;3081;50.584;7.032;2023-04-25T10:04:37;14.50;;;2.97;;
6101;SDS011;3081;50.584;7.032;2023-04-25T10:07:05;12.73;;;2.27;;
6101;SDS011;3081;50.584;7.032;2023-04-25T10:09:35;10.80;;;1.93;;
6101;SDS011;3081;50.584;7.032;2023-04-25T10:12:04;12.10;;;2.10;;
6101;SDS011;3081;50.584;7.032;2023-04-25T10:14:33;11.90;;;1.90;;
6101;SDS011;3081;50.584;7.032;2023-04-25T10:17:00;14.13;;;3.80;;
6101;SDS011;3081;50.584;7.032;2023-04-25T10:19:28;10.70;;;2.17;;
6101;SDS011;3081;50.584;7.032;2023-04-25T10:21:58;14.20;;;1.70;;
6101;SDS011;3081;50.584;7.032;2023-04-25T10:24:30;11.53;;;2.07;;
6101;SDS011;3081;50.584;7.032;2023-04-25T10:26:58;14.53;;;2.30;;
6101;SDS011;3081;50.584;7.032;2023-04-25T10:29:26;10.63;;;2.23;;
6101;SDS011;3081;50.584;7.032;2023-04-25T10:31:53;7.33;;;1.53;;
6101;SDS011;3081;50.584;7.032;2023-04-25T10:34:23;9.43;;;1.03;;
6101;SDS011;3081;50.584;7.032;2023-04-25T10:37:03;7.53;;;1.57;;
6101;SDS011;3081;50.584;7.032;2023-04-25T10:39:30;25.43;;;1.87;;
6101;SDS011;3081;50.584;7.032;2023-04-25T10:42:01;6.97;;;1.20;;
6101;SDS011;3081;50.584;7.032;2023-04-25T10:44:29;11.43;;;1.77;;
6101;SDS011;3081;50.584;7.032;2023-04-25T10:46:56;12.07;;;2.43;;
6101;SDS011;3081;50.584;7.032;2023-04-25T10:49:31;17.10;;;2.40;;
6101;SDS011;3081;50.584;7.032;2023-04-25T10:52:12;7.00;;;1.63;;
6101;SDS011;3081;50.584;7.032;2023-04-25T10:54:46;8.63;;;1.60;;
6101;SDS011;3081;50.584;7.032;2023-04-25T10:57:30;8.23;;;2.00;;
6101;SDS011;3081;50.584;7.032;2023-04-25T11:00:01;8.50;;;2.30;;
6101;SDS011;3081;50.584;7.032;2023-04-25T11:02:32;8.37;;;1.53;;
6101;SDS011;3081;50.584;7.032;2023-04-25T11:05:04;12.10;;;2.27;;
6101;SDS011;3081;50.584;7.032;2023-04-25T11:07:33;7.53;;;1.80;;
6101;SDS011;3081;50.584;7.032;2023-04-25T11:10:04;10.80;;;2.13;;
6101;SDS011;3081;50.584;7.032;2023-04-25T11:12:33;9.70;;;1.90;;
6101;SDS011;3081;50.584;7.032;2023-04-25T11:15:00;11.20;;;2.13;;
6101;SDS011;3081;50.584;7.032;2023-04-25T11:17:28;8.63;;;1.70;;
6101;SDS011;3081;50.584;7.032;2023-04-25T11:19:55;9.40;;;2.10;;
6101;SDS011;3081;50.584;7.032;2023-04-25T11:22:23;8.63;;;1.83;;
6101;SDS011;3081;50.584;7.032;2023-04-25T11:24:50;11.03;;;2.47;;
6101;SDS011;3081;50.584;7.032;2023-04-25T11:27:17;8.90;;;2.20;;
6101;SDS011;3081;50.584;7.032;2023-04-25T11:29:45;11.70;;;2.10;;
6101;SDS011;3081;50.584;7.032;2023-04-25T11:32:14;9.73;;;1.70;;
6101;SDS011;3081;50.584;7.032;2023-04-25T11:34:42;9.90;;;2.00;;
6101;SDS011;3081;50.584;7.032;2023-04-25T11:37:11;9.57;;;1.80;;
6101;SDS011;3081;50.584;7.032;2023-04-25T11:39:39;11.37;;;2.10;;
6101;SDS011;3081;50.584;7.032;2023-04-25T11:42:10;8.13;;;1.70;;
6101;SDS011;3081;50.584;7.032;2023-04-25T11:44:37;10.10;;;2.13;;
6101;SDS011;3081;50.584;7.032;2023-04-25T11:47:06;8.60;;;2.23;;
6101;SDS011;3081;50.584;7.032;2023-04-25T11:49:33;8.03;;;2.00;;
6101;SDS011;3081;50.584;7.032;2023-04-25T11:52:01;8.57;;;2.07;;
6101;SDS011;3081;50.584;7.032;2023-04-25T11:54:29;9.87;;;2.50;;
6101;SDS011;3081;50.584;7.032;2023-04-25T11:56:56;9.53;;;2.27;;
6101;SDS011;3081;50.584;7.032;2023-04-25T11:59:23;10.23;;;2.33;;
6101;SDS011;3081;50.584;7.032;2023-04-25T12:01:51;9.83;;;2.10;;
6101;SDS011;3081;50.584;7.032;2023-04-25T12:04:21;15.90;;;3.13;;
6101;SDS011;3081;50.584;7.032;2023-04-25T12:06:51;10.67;;;2.80;;
6101;SDS011;3081;50.584;7.032;2023-04-25T12:09:19;15.00;;;3.20;;
6101;SDS011;3081;50.584;7.032;2023-04-25T12:11:48;14.83;;;3.30;;
6101;SDS011;3081;50.584;7.032;2023-04-25T12:14:22;10.37;;;2.60;;
6101;SDS011;3081;50.584;7.032;2023-04-25T12:16:51;8.60;;;1.80;;
6101;SDS011;3081;50.584;7.032;2023-04-25T12:19:18;11.37;;;2.70;;
6101;SDS011;3081;50.584;7.032;2023-04-25T12:21:47;10.63;;;2.90;;
6101;SDS011;3081;50.584;7.032;2023-04-25T12:24:15;12.57;;;2.80;;
6101;SDS011;3081;50.584;7.032;2023-04-25T12:26:47;14.63;;;2.50;;
6101;SDS011;3081;50.584;7.032;2023-04-25T12:29:16;10.13;;;2.37;;
6101;SDS011;3081;50.584;7.032;2023-04-25T12:31:47;10.93;;;2.00;;
6101;SDS011;3081;50.584;7.032;2023-04-25T12:34:14;10.60;;;2.00;;
6101;SDS011;3081;50.584;7.032;2023-04-25T12:36:41;9.73;;;2.60;;
6101;SDS011;3081;50.584;7.032;2023-04-25T12:39:09;11.93;;;2.70;;
6101;SDS011;3081;50.584;7.032;2023-04-25T12:41:41;11.87;;;3.20;;
6101;SDS011;3081;50.584;7.032;2023-04-25T12:44:07;9.50;;;2.67;;
6101;SDS011;3081;50.584;7.032;2023-04-25T12:46:35;11.20;;;3.20;;
6101;SDS011;3081;50.584;7.032;2023-04-25T12:49:02;18.47;;;2.93;;
6101;SDS011;3081;50.584;7.032;2023-04-25T12:51:29;9.77;;;2.40;;
6101;SDS011;3081;50.584;7.032;2023-04-25T12:53:57;11.90;;;3.20;;
6101;SDS011;3081;50.584;7.032;2023-04-25T12:56:26;11.87;;;2.30;;
6101;SDS011;3081;50.584;7.032;2023-04-25T12:58:53;13.57;;;2.67;;
6101;SDS011;3081;50.584;7.032;2023-04-25T13:01:21;17.43;;;2.83;;
6101;SDS011;3081;50.584;7.032;2023-04-25T13:03:48;12.00;;;2.47;;
6101;SDS011;3081;50.584;7.032;2023-04-25T13:06:15;10.07;;;2.80;;
6101;SDS011;3081;50.584;7.032;2023-04-25T13:08:42;11.40;;;2.63;;
6101;SDS011;3081;50.584;7.032;2023-04-25T13:11:09;11.60;;;2.33;;
6101;SDS011;3081;50.584;7.032;2023-04-25T13:13:38;9.13;;;2.10;;
6101;SDS011;3081;50.584;7.032;2023-04-25T13:16:06;12.37;;;3.10;;
6101;SDS011;3081;50.584;7.032;2023-04-25T13:18:33;14.40;;;4.17;;
6101;SDS011;3081;50.584;7.032;2023-04-25T13:21:00;11.67;;;2.37;;
6101;SDS011;3081;50.584;7.032;2023-04-25T13:23:28;11.17;;;2.50;;
6101;SDS011;3081;50.584;7.032;2023-04-25T13:25:56;11.80;;;2.77;;
6101;SDS011;3081;50.584;7.032;2023-04-25T13:28:24;10.67;;;2.13;;
6101;SDS011;3081;50.584;7.032;2023-04-25T13:30:52;10.77;;;2.90;;
6101;SDS011;3081;50.584;7.032;2023-04-25T13:33:20;8.77;;;2.47;;
6101;SDS011;3081;50.584;7.032;2023-04-25T13:35:48;9.23;;;2.27;;
6101;SDS011;3081;50.584;7.032;2023-04-25T13:38:19;10.27;;;2.90;;
6101;SDS011;3081;50.584;7.032;2023-04-25T13:40:47;17.53;;;2.27;;
6101;SDS011;3081;50.584;7.032;2023-04-25T13:43:14;13.73;;;2.80;;
6101;SDS011;3081;50.584;7.032;2023-04-25T13:45:41;10.00;;;2.50;;
6101;SDS011;3081;50.584;7.032;2023-04-25T13:48:09;10.10;;;2.10;;
6101;SDS011;3081;50.584;7.032;2023-04-25T13:50:36;10.07;;;1.97;;
6101;SDS011;3081;50.584;7.032;2023-04-25T13:53:03;10.83;;;3.03;;
6101;SDS011;3081;50.584;7.032;2023-04-25T13:55:30;12.80;;;2.27;;
6101;SDS011;3081;50.584;7.032;2023-04-25T13:57:57;11.37;;;3.23;;
6101;SDS011;3081;50.584;7.032;2023-04-25T14:00:24;10.67;;;2.20;;
6101;SDS011;3081;50.584;7.032;2023-04-25T14:02:51;9.37;;;2.50;;
6101;SDS011;3081;50.584;7.032;2023-04-25T14:05:20;15.93;;;3.40;;
6101;SDS011;3081;50.584;7.032;2023-04-25T14:07:46;7.20;;;1.70;;
6101;SDS011;3081;50.584;7.032;2023-04-25T14:10:13;14.07;;;2.27;;
6101;SDS011;3081;50.584;7.032;2023-04-25T14:12:41;13.87;;;2.10;;
6101;SDS011;3081;50.584;7.032;2023-04-25T14:15:09;9.70;;;1.90;;
6101;SDS011;3081;50.584;7.032;2023-04-25T14:17:36;10.13;;;1.60;;
6101;SDS011;3081;50.584;7.032;2023-04-25T14:20:04;11.20;;;2.47;;
6101;SDS011;3081;50.584;7.032;2023-04-25T14:22:34;8.50;;;2.00;;
6101;SDS011;3081;50.584;7.032;2023-04-25T14:25:01;11.10;;;2.20;;
6101;SDS011;3081;50.584;7.032;2023-04-25T14:27:29;11.27;;;2.20;;
6101;SDS011;3081;50.584;7.032;2023-04-25T14:29:56;8.93;;;1.93;;
6101;SDS011;3081;50.584;7.032;2023-04-25T14:32:22;8.37;;;2.50;;
6101;SDS011;3081;50.584;7.032;2023-04-25T14:34:49;9.80;;;2.17;;
6101;SDS011;3081;50.584;7.032;2023-04-25T14:37:16;8.13;;;1.77;;
6101;SDS011;3081;50.584;7.032;2023-04-25T14:39:44;13.90;;;2.30;;
6101;SDS011;3081;50.584;7.032;2023-04-25T14:42:11;11.00;;;2.97;;
6101;SDS011;3081;50.584;7.032;2023-04-25T14:44:38;10.43;;;1.27;;
6101;SDS011;3081;50.584;7.032;2023-04-25T14:47:05;9.87;;;2.03;;
6101;SDS011;3081;50.584;7.032;2023-04-25T14:49:32;16.23;;;2.60;;
6101;SDS011;3081;50.584;7.032;2023-04-25T14:51:59;7.30;;;1.30;;
6101;SDS011;3081;50.584;7.032;2023-04-25T14:54:26;12.87;;;2.73;;
6101;SDS011;3081;50.584;7.032;2023-04-25T14:56:55;12.70;;;3.30;;
6101;SDS011;3081;50.584;7.032;2023-04-25T14:59:22;8.73;;;1.90;;
6101;SDS011;3081;50.584;7.032;2023-04-25T15:01:50;8.93;;;2.00;;
6101;SDS011;3081;50.584;7.032;2023-04-25T15:04:18;8.83;;;1.73;;
6101;SDS011;3081;50.584;7.032;2023-04-25T15:06:45;9.63;;;1.77;;
6101;SDS011;3081;50.584;7.032;2023-04-25T15:09:11;11.97;;;1.93;;
6101;SDS011;3081;50.584;7.032;2023-04-25T15:11:38;13.27;;;1.83;;